Herseytown Township, Maine
Current Conditions -  °F | °C
As of 4:05 AM on Friday 24 Oct 2014 (Local Time) from KMLT Reporting Station
Light Rain Light Rain  
Wind Chill: 39°   Ceiling: 4700
Heat Index: 44°   Visibility: 7mi
Dew Point: 41°   Wind: 9mph
Humidity: 89%   Direction: 10°N
Pressure: 29.77"   Gusts: NA
Location:  45.87°N, 68.5179°W
Report Text: KMLT 240805Z AUTO 01008KT 340V040 7SM -RA SCT010 BKN047 OVC080 07/05 A2977 RMK AO2 P0002 T00670050
Loading
Personal Weather Stations






























Interactive Weather Map
Tropical Storm Tracking
New forecast layout! Learn more

10-Day Weather Forecast

Advertisements
Track Severe Weather on mobile